createdAt,value
2023-01-09T00:02:50.458Z,21.03
2023-01-09T00:07:08.208Z,46.07
2023-01-09T00:11:25.891Z,65.13
2023-01-09T00:15:43.589Z,46.80
2023-01-09T00:20:01.105Z,25.83
2023-01-09T00:24:18.906Z,22.60
2023-01-09T00:28:36.669Z,16.83
2023-01-09T00:32:55.592Z,15.20
2023-01-09T00:37:13.297Z,14.38
2023-01-09T00:41:44.670Z,14.52
2023-01-09T00:46:06.709Z,16.27
2023-01-09T00:50:30.925Z,22.45
2023-01-09T00:54:48.571Z,17.50
2023-01-09T00:59:07.466Z,14.23
2023-01-09T01:03:25.448Z,12.60
2023-01-09T01:07:43.493Z,14.23
2023-01-09T01:12:07.234Z,11.27
2023-01-09T01:16:25.703Z,11.68
2023-01-09T01:20:45.385Z,13.10
2023-01-09T01:25:04.559Z,11.93
2023-01-09T01:29:22.439Z,11.90
2023-01-09T01:33:39.938Z,14.10
2023-01-09T01:37:57.920Z,67.30
2023-01-09T01:42:15.486Z,24.00
2023-01-09T01:46:34.845Z,16.17
2023-01-09T01:51:05.244Z,16.17
2023-01-09T01:55:23.585Z,17.92
2023-01-09T01:59:50.623Z,16.50
2023-01-09T02:04:08.665Z,26.63
2023-01-09T02:08:26.635Z,20.80
2023-01-09T02:12:44.133Z,12.18
2023-01-09T02:17:17.615Z,11.43
2023-01-09T02:22:27.828Z,9.65
2023-01-09T02:27:01.801Z,12.10
2023-01-09T02:31:41.480Z,10.80
2023-01-09T02:36:57.956Z,11.77
2023-01-09T02:41:26.721Z,13.98
2023-01-09T02:45:44.448Z,15.85
2023-01-09T02:50:06.275Z,11.47
2023-01-09T02:54:47.325Z,12.10
2023-01-09T02:59:39.307Z,12.18
2023-01-09T03:04:25.321Z,12.60
2023-01-09T03:08:53.554Z,11.38
2023-01-09T03:13:15.663Z,11.70
2023-01-09T03:17:38.923Z,11.85
2023-01-09T03:21:57.654Z,13.63
2023-01-09T03:26:15.375Z,13.15
2023-01-09T03:30:34.855Z,14.40
2023-01-09T03:34:52.566Z,13.93
2023-01-09T03:39:10.247Z,11.20
2023-01-09T03:43:27.971Z,12.70
2023-01-09T03:47:45.481Z,11.20
2023-01-09T03:52:03.322Z,14.00
2023-01-09T03:56:20.835Z,12.20
2023-01-09T04:00:39.683Z,13.15
2023-01-09T04:04:57.191Z,12.52
2023-01-09T04:09:15.030Z,11.70
2023-01-09T04:13:32.546Z,13.43
2023-01-09T04:17:50.075Z,14.45
2023-01-09T04:22:07.667Z,12.55
2023-01-09T04:26:25.403Z,12.00
2023-01-09T04:30:43.055Z,11.37
2023-01-09T04:35:00.552Z,13.60
2023-01-09T04:39:18.148Z,12.82
2023-01-09T04:43:35.697Z,13.77
2023-01-09T04:47:53.569Z,11.50
2023-01-09T04:52:11.040Z,11.63
2023-01-09T04:56:28.774Z,12.00
2023-01-09T05:00:46.441Z,11.87
2023-01-09T05:05:11.808Z,17.77
2023-01-09T05:09:29.847Z,13.35
2023-01-09T05:13:47.610Z,11.10
2023-01-09T05:18:05.264Z,10.57
2023-01-09T05:22:22.859Z,10.93
2023-01-09T05:26:40.571Z,10.27
2023-01-09T05:30:58.351Z,10.60
2023-01-09T05:35:16.043Z,10.13
2023-01-09T05:39:33.565Z,10.23
2023-01-09T05:43:51.228Z,10.18
2023-01-09T05:48:08.695Z,10.73
2023-01-09T05:52:26.388Z,8.27
2023-01-09T05:56:43.927Z,9.43
2023-01-09T06:01:01.735Z,8.23
2023-01-09T06:05:19.302Z,8.03
2023-01-09T06:09:37.257Z,9.60
2023-01-09T06:13:54.905Z,8.17
2023-01-09T06:18:12.558Z,9.90
2023-01-09T06:22:30.327Z,10.45
2023-01-09T06:26:48.197Z,7.97
2023-01-09T06:31:06.347Z,7.93
2023-01-09T06:35:24.159Z,10.75
2023-01-09T06:39:41.938Z,9.67
2023-01-09T06:43:59.424Z,11.97
2023-01-09T06:48:17.205Z,11.02
2023-01-09T06:52:34.882Z,9.17
2023-01-09T06:56:52.546Z,7.70
2023-01-09T07:01:10.393Z,7.30
2023-01-09T07:05:28.032Z,7.50
2023-01-09T07:09:45.949Z,6.63
2023-01-09T07:14:03.439Z,7.07
2023-01-09T07:18:21.160Z,7.20
2023-01-09T07:22:38.672Z,6.47
2023-01-09T07:26:56.306Z,6.38
2023-01-09T07:31:13.823Z,5.45
2023-01-09T07:35:31.532Z,5.53
2023-01-09T07:39:49.134Z,6.63
2023-01-09T07:44:09.561Z,6.40
2023-01-09T07:48:28.337Z,5.97
2023-01-09T07:52:46.860Z,6.43
2023-01-09T07:57:04.617Z,6.22
2023-01-09T08:01:22.563Z,5.23
2023-01-09T08:05:40.350Z,5.50
2023-01-09T08:09:58.020Z,6.82
2023-01-09T08:14:15.805Z,7.57
2023-01-09T08:18:33.351Z,10.77
2023-01-09T08:22:52.320Z,14.32
2023-01-09T08:27:10.176Z,16.20
2023-01-09T08:31:28.000Z,21.33
2023-01-09T08:35:45.976Z,16.33
2023-01-09T08:40:03.904Z,12.35
2023-01-09T08:44:40.118Z,12.10
2023-01-09T08:48:57.788Z,10.77
2023-01-09T08:53:15.641Z,10.93
2023-01-09T08:57:33.443Z,6.07
2023-01-09T09:01:51.136Z,5.20
2023-01-09T09:06:08.845Z,5.17
2023-01-09T09:10:29.115Z,5.10
2023-01-09T09:15:07.301Z,9.40
2023-01-09T09:19:24.854Z,7.15
2023-01-09T09:23:42.518Z,5.38
2023-01-09T09:28:01.375Z,6.43
2023-01-09T09:32:19.173Z,6.90
2023-01-09T09:36:37.038Z,4.73
2023-01-09T09:41:42.437Z,5.00
2023-01-09T09:46:29.037Z,5.03
2023-01-09T09:51:25.084Z,5.03
2023-01-09T09:55:43.686Z,4.28
2023-01-09T10:04:23.847Z,4.07
2023-01-09T10:09:02.650Z,4.35
2023-01-09T10:13:43.253Z,4.63
2023-01-09T10:18:42.004Z,4.20
2023-01-09T10:23:44.774Z,6.18
2023-01-09T10:28:50.798Z,4.82
2023-01-09T10:33:41.111Z,3.97
2023-01-09T10:38:01.867Z,4.45
2023-01-09T10:42:36.706Z,3.10
2023-01-09T10:46:57.419Z,3.72
2023-01-09T10:51:25.514Z,4.20
2023-01-09T10:55:50.374Z,3.75
2023-01-09T11:00:17.532Z,4.03
2023-01-09T11:04:37.963Z,3.88
2023-01-09T11:08:59.147Z,3.33
2023-01-09T11:13:33.415Z,3.97
2023-01-09T11:17:52.318Z,3.28
2023-01-09T11:22:19.066Z,4.20
2023-01-09T11:26:36.576Z,4.53
2023-01-09T11:31:00.636Z,3.38
2023-01-09T11:35:27.277Z,4.32
2023-01-09T11:39:48.237Z,3.03
2023-01-09T11:44:06.101Z,6.07
2023-01-09T11:48:57.146Z,6.73
2023-01-09T11:53:20.861Z,4.95
2023-01-09T11:57:38.426Z,3.63
2023-01-09T12:02:25.585Z,3.45
2023-01-09T12:07:17.476Z,4.00
2023-01-09T12:11:43.124Z,4.25
2023-01-09T12:16:23.275Z,3.63
2023-01-09T12:21:25.722Z,3.65
2023-01-09T12:26:02.119Z,4.28
2023-01-09T12:30:30.984Z,4.18
2023-01-09T12:35:33.433Z,4.22
2023-01-09T12:40:29.160Z,4.60
2023-01-09T12:44:57.660Z,3.45
2023-01-09T12:54:23.838Z,3.92
2023-01-09T12:59:01.927Z,4.18
2023-01-09T13:03:49.836Z,4.57
2023-01-09T13:08:28.421Z,4.10
2023-01-09T13:17:14.528Z,3.45
2023-01-09T13:21:32.559Z,3.28
2023-01-09T13:25:57.724Z,3.83
2023-01-09T13:30:39.253Z,4.35
2023-01-09T13:35:01.634Z,7.60
2023-01-09T13:39:37.868Z,9.75
2023-01-09T13:44:02.296Z,11.07
2023-01-09T13:48:42.094Z,18.85
2023-01-09T13:53:19.839Z,14.25
2023-01-09T13:58:08.336Z,9.63
2023-01-09T14:07:20.401Z,34.50
2023-01-09T14:11:38.227Z,14.20
2023-01-09T14:16:11.097Z,15.38
2023-01-09T14:20:36.953Z,15.80
2023-01-09T14:25:01.391Z,16.15
2023-01-09T14:29:44.841Z,27.73
2023-01-09T14:34:32.025Z,22.00
2023-01-09T14:39:04.232Z,25.67
2023-01-09T14:43:38.545Z,24.02
2023-01-09T14:48:02.776Z,13.35
2023-01-09T14:52:30.284Z,17.65
2023-01-09T14:56:48.399Z,11.10
2023-01-09T15:01:23.796Z,21.38
2023-01-09T15:05:45.538Z,11.45
2023-01-09T15:10:05.057Z,17.23
2023-01-09T15:14:40.264Z,22.95
2023-01-09T15:19:02.564Z,16.02
2023-01-09T15:23:26.377Z,14.85
2023-01-09T15:27:56.459Z,11.23
2023-01-09T15:32:29.344Z,16.42
2023-01-09T15:36:49.377Z,15.40
2023-01-09T15:41:12.171Z,18.02
2023-01-09T15:45:56.774Z,15.93
2023-01-09T15:50:18.000Z,16.10
2023-01-09T15:54:36.105Z,14.50
2023-01-09T15:58:55.227Z,13.45
2023-01-09T16:03:20.620Z,15.10
2023-01-09T16:07:46.766Z,20.75
2023-01-09T16:12:04.871Z,27.80
2023-01-09T16:16:31.409Z,30.33
2023-01-09T16:20:49.658Z,29.60
2023-01-09T16:25:35.096Z,23.50
2023-01-09T16:29:57.988Z,31.05
2023-01-09T16:34:16.687Z,45.55
2023-01-09T16:38:34.600Z,45.97
2023-01-09T16:43:07.542Z,42.50
2023-01-09T16:47:25.053Z,38.45
2023-01-09T16:56:01.147Z,39.47
2023-01-09T17:00:21.298Z,33.50
2023-01-09T17:04:38.802Z,34.58
2023-01-09T17:08:56.992Z,43.08
2023-01-09T17:13:14.625Z,46.95
2023-01-09T17:17:32.278Z,41.87
2023-01-09T17:21:49.894Z,47.23
2023-01-09T17:26:31.540Z,49.60
2023-01-09T17:30:49.337Z,37.90
2023-01-09T17:35:07.366Z,39.97
2023-01-09T17:39:25.434Z,40.00
2023-01-09T17:43:44.513Z,47.27
2023-01-09T17:48:03.352Z,35.17
2023-01-09T17:52:22.263Z,30.95
2023-01-09T17:56:44.461Z,23.13
2023-01-09T18:01:02.275Z,17.58
2023-01-09T18:05:24.617Z,15.23
2023-01-09T18:09:43.669Z,16.58
2023-01-09T18:14:01.329Z,21.20
2023-01-09T18:18:20.331Z,20.67
2023-01-09T18:22:38.175Z,19.00
2023-01-09T18:26:55.889Z,11.85
2023-01-09T18:31:15.772Z,11.88
2023-01-09T18:35:34.566Z,11.70
2023-01-09T18:39:52.270Z,12.18
2023-01-09T18:44:09.813Z,12.53
2023-01-09T18:48:27.437Z,14.45
2023-01-09T18:52:44.933Z,12.33
2023-01-09T18:57:02.666Z,13.05
2023-01-09T19:01:20.217Z,11.57
2023-01-09T19:05:38.076Z,12.63
2023-01-09T19:09:55.682Z,13.13
2023-01-09T19:14:13.401Z,14.15
2023-01-09T19:18:35.415Z,16.50
2023-01-09T19:22:55.451Z,14.68
2023-01-09T19:27:13.200Z,18.73
2023-01-09T19:31:30.945Z,21.30
2023-01-09T19:35:49.345Z,22.30
2023-01-09T19:40:07.342Z,22.38
2023-01-09T19:44:25.333Z,21.58
2023-01-09T19:48:43.126Z,20.40
2023-01-09T19:53:00.650Z,22.97
2023-01-09T19:57:18.309Z,20.17
2023-01-09T20:01:39.592Z,21.43
2023-01-09T20:06:04.503Z,19.25
2023-01-09T20:10:22.132Z,15.38
2023-01-09T20:14:40.071Z,13.63
2023-01-09T20:19:00.826Z,12.20
2023-01-09T20:23:21.717Z,11.48
2023-01-09T20:27:39.172Z,12.07
2023-01-09T20:31:57.321Z,12.07
2023-01-09T20:36:15.718Z,10.50
2023-01-09T20:40:36.564Z,10.40
2023-01-09T20:44:54.216Z,10.68
2023-01-09T20:49:14.339Z,10.73
2023-01-09T20:53:31.829Z,13.38
2023-01-09T20:57:49.856Z,14.77
2023-01-09T21:02:14.714Z,14.52
2023-01-09T21:06:32.662Z,12.88
2023-01-09T21:10:57.342Z,12.60
2023-01-09T21:15:18.093Z,13.80
2023-01-09T21:19:35.601Z,22.20
2023-01-09T21:23:56.864Z,36.70
2023-01-09T21:28:17.645Z,24.98
2023-01-09T21:32:35.788Z,18.67
2023-01-09T21:36:53.843Z,15.70
2023-01-09T21:41:30.729Z,17.17
2023-01-09T21:46:07.019Z,15.07
2023-01-09T21:50:24.085Z,12.95
2023-01-09T21:54:42.096Z,10.57
2023-01-09T21:58:59.566Z,11.60
2023-01-09T22:03:19.295Z,28.35
2023-01-09T22:07:36.860Z,90.80
2023-01-09T22:11:54.705Z,70.83
2023-01-09T22:16:13.225Z,43.57
2023-01-09T22:24:50.041Z,15.73
2023-01-09T22:29:07.701Z,12.60
2023-01-09T22:33:25.337Z,11.37
2023-01-09T22:37:43.123Z,14.47
2023-01-09T22:42:00.572Z,20.83
2023-01-09T22:46:18.214Z,22.38
2023-01-09T22:50:36.746Z,21.23
2023-01-09T22:54:57.274Z,21.58
2023-01-09T22:59:14.816Z,14.43
2023-01-09T23:03:32.809Z,14.68
2023-01-09T23:07:50.286Z,23.33
2023-01-09T23:12:08.267Z,22.50
2023-01-09T23:16:26.198Z,16.00
2023-01-09T23:20:58.018Z,12.60
2023-01-09T23:25:16.104Z,13.30
2023-01-09T23:29:33.698Z,16.00
2023-01-09T23:33:57.223Z,16.60
2023-01-09T23:38:15.568Z,18.47
2023-01-09T23:42:51.696Z,15.07
2023-01-09T23:47:08.956Z,14.95
2023-01-09T23:51:27.729Z,16.33
